AirNav   ATP
 
 1587 users online  

1E8 Moores Airport
Degrasse, New York, USA

GOING TO DEGRASSE?


FAA INFORMATION EFFECTIVE 01 FEBRUARY 2018

Location

FAA Identifier: 1E8
Lat/Long: 44-23-16.5000N / 075-03-58.8000W
44-23.275000N / 075-03.980000W
44.3879167 / -75.0663333
(estimated)
Elevation: 815 ft. / 248 m (estimated)
Variation: 14W (1985)
From city: 3 miles N of DEGRASSE, NY
Time zone: UTC -5 (UTC -4 during Daylight Saving Time)
Zip code: 13684

Airport Operations

Airport use: Open to the public
Activation date: 08/1966
Control tower: no
ARTCC: BOSTON CENTER
FSS: BURLINGTON FLIGHT SERVICE STATION
NOTAMs facility: BTV (NOTAM-D service available)
Attendance: UNATNDD
Wind indicator: yes
Segmented circle: no

Airport Communications

CTAF: 122.9
WX AWOS-3P at PTD (18 nm N): 118.325 (315-265-6106)

Nearby radio navigation aids

VOR radial/distance  VOR name  Freq  Var
MSSr219/34.8MASSENA VORTAC114.1014W
SLKr284/37.0SARANAC LAKE VOR/DME109.2014W

 
NDB name  Hdg/Dist  Freq  Var  ID
POTSDAM215/21.640014WPTD .--. - -..
DRUM070/34.625713WGTB --. - -...

Airport Services

Parking: tiedowns
Airframe service: NONE
Powerplant service: NONE
Bottled oxygen: NONE
Bulk oxygen: NONE

Runway Information

Runway 2/20

Dimensions: 2200 x 55 ft. / 671 x 17 m
RY 20 STARTS AT APPROX 250 FT FM TREES ON RY END.
Surface: turf, in fair condition
RUNWAY 2  RUNWAY 20
Latitude: 44-23.095392N44-23.456023N
Longitude: 075-04.003547W075-03.957098W
Elevation: 811.0 ft.815.0 ft.
Traffic pattern: leftleft
Runway heading: 019 magnetic, 005 true199 magnetic, 185 true
Obstructions: 30 ft. trees, 8 ft. from runway, 114 ft. left of centerline, 1:1 slope to clear40 ft. trees, 71 ft. from runway, 114 ft. left of centerline, 2:1 slope to clear

Airport Ownership and Management from official FAA records

Ownership: Privately-owned
Owner: KATHRYN MOORE
2522 CO. RT. 27
RUSSELL, NY 13684
Phone (315) 848-2197
Manager: ROBIN CELLECK
4482 CO. RT 27
CANTON, NY 13617
Phone (315) 379-1907

Airport Operational Statistics

Aircraft based on the field: 5
Single engine airplanes: 3
Ultralights: 2
    
Aircraft operations: avg 83/month *
100% local general aviation
* for 12-month period ending 18 July 2017

Additional Remarks

DEER ON AND INVOF ARPT.
RY 02 DITCH IMMEDIATELY RIGHT OF THLD MARKED BY CONES.
RY 20, 58 FT TREES, 263 FT FM RY BEGINNING, ACROSS RY WIDTH & APPROXIMATELY 800 FT. ALONG BOTH SIDES.
DIRT ROAD TO HANGAR CROSSES APPROXIMATE MIDPOINT OF RY.
RWY 20 3 EARTHEN MOUNDS APPROX. 5 FT. HIGH OFF RIGHT SIDE OF RUNWAY 400 FT. FROM THRESHOLD. TREES/BRUSH NEXT TO RUNWAY THRESHOLD L/S.
RWY 02 TREES/BRUSH NEXT TO CORNER OF THRESHOLD L/S.

Instrument Procedures

There are no published instrument procedures at 1E8.

Some nearby airports with instrument procedures:

KPTD - Potsdam Municipal Airport (Damon Field) (18 nm N)
KOGS - Ogdensburg International Airport (24 nm NW)
KMSS - Massena International Airport-Richards Field (34 nm N)
KGTB - Wheeler-Sack Army Airfield (34 nm SW)
KSLK - Adirondack Regional Airport (37 nm E)
 
Loc | Ops | Rwys | IFR | FBO | Links
Com | Nav | Svcs | Stats | Notes

AirNav Hotels Sweepstakes
 
Area around 1E8 (Moores Airport)
 
Road maps at: MapQuest Bing Google
 
Aerial photo
No photo
 
Sectional chart

 
Airport distance calculator
Flying to Moores Airport? Find the distance to fly.

From to 1E8

Sunrise and sunset
Times for 22-Feb-2018
 Local
(UTC-5)
 Zulu
(UTC)
Morning civil twilight06:2111:21
Sunrise06:5011:50
Sunset17:3722:37
Evening civil twilight18:0723:07

Current date and time
Zulu (UTC)  22-Feb-2018 17:43:01
Local (UTC-5)  22-Feb-2018 12:43:01
 
METAR
KPTD 
18nm N 
221715Z AUTO 03004KT 10SM CLR M03/M09 A3072 RMK AO2
KOGS 
24nm NW 
221715Z AUTO 01007KT 10SM CLR M02/M09 A3074 RMK AO2 T10241090
KMSS 
34nm N 
221653Z AUTO 02007KT 10SM CLR M03/M09 A3075 RMK AO2 SLP420 T10281089
KGTB 
35nm SW 
221656Z AUTO 03008KT 10SM BKN100 OVC120 M02/M09 A3066 RMK AO2 SLP393 T10211086
TAF
KMSS 
34nm N 
221121Z 2212/2312 02005KT P6SM SCT150
KGTB 
35nm SW 
220900Z 2209/2315 05006KT 9999 BKN150 QNH3061INS BECMG 2302/2303 13009KT 9999 FEW100 FEW250 QNH3034INS TX03/2219Z TNM03/2212Z
KSLK 
37nm E 
221121Z 2212/2312 03004KT P6SM BKN120
NOTAMs
Click for the latest NOTAMs
NOTAMs are issued by the DoD/FAA and will open in a separate window not controlled by AirNav.

 

 
 

Would you like to see your business listed on this page?

 If your business provides an interesting product or service to pilots, flight crews, aircraft, or users of the Moores Airport, you should consider listing it here.  To start the listing process, click on the button below
 
Add a business
 

Other Pages about Moores Airport

Update a link
 
Copyright © AirNav, LLC. All rights reserved. Privacy Policy  Contact